sensor_id;sensor_type;location;lat;lon;timestamp;pressure;altitude;pressure_sealevel;temperature;humidity
28456;BME280;15682;56.742;38.866;2023-05-02T00:00:31;99910.0;;;3.3;94.1
28456;BME280;15682;56.742;38.866;2023-05-02T00:02:32;99910.0;;;3.3;94.7
28456;BME280;15682;56.742;38.866;2023-05-02T00:04:31;99910.0;;;3.2;93.9
28456;BME280;15682;56.742;38.866;2023-05-02T00:06:31;99910.0;;;3.2;94.9
28456;BME280;15682;56.742;38.866;2023-05-02T00:08:31;99910.0;;;3.2;94.9
28456;BME280;15682;56.742;38.866;2023-05-02T00:10:31;99920.0;;;3.2;94.9
28456;BME280;15682;56.742;38.866;2023-05-02T00:12:31;99920.0;;;3.2;94.9
28456;BME280;15682;56.742;38.866;2023-05-02T00:14:31;99930.0;;;3.2;94.9
28456;BME280;15682;56.742;38.866;2023-05-02T00:16:31;99930.0;;;3.1;95.6
28456;BME280;15682;56.742;38.866;2023-05-02T00:18:31;99930.0;;;3.1;94.8
28456;BME280;15682;56.742;38.866;2023-05-02T00:20:31;99930.0;;;3.1;94.8
28456;BME280;15682;56.742;38.866;2023-05-02T00:22:31;99940.0;;;3.0;94.8
28456;BME280;15682;56.742;38.866;2023-05-02T00:24:31;99940.0;;;3.1;95.4
28456;BME280;15682;56.742;38.866;2023-05-02T00:26:31;99940.0;;;3.0;95.5
28456;BME280;15682;56.742;38.866;2023-05-02T00:28:31;99940.0;;;3.0;95.5
28456;BME280;15682;56.742;38.866;2023-05-02T00:30:31;99940.0;;;3.0;94.9
28456;BME280;15682;56.742;38.866;2023-05-02T00:32:31;99940.0;;;3.0;94.9
28456;BME280;15682;56.742;38.866;2023-05-02T00:34:32;99950.0;;;2.9;94.9
28456;BME280;15682;56.742;38.866;2023-05-02T00:36:31;99960.0;;;2.8;95.1
28456;BME280;15682;56.742;38.866;2023-05-02T00:38:31;99960.0;;;2.8;95.1
28456;BME280;15682;56.742;38.866;2023-05-02T00:40:41;99960.0;;;2.8;95.1
28456;BME280;15682;56.742;38.866;2023-05-02T00:42:32;99960.0;;;2.8;95.1
28456;BME280;15682;56.742;38.866;2023-05-02T00:44:31;99970.0;;;2.8;95.5
28456;BME280;15682;56.742;38.866;2023-05-02T00:46:31;99970.0;;;2.9;95.8
28456;BME280;15682;56.742;38.866;2023-05-02T00:48:32;99970.0;;;2.9;95.8
28456;BME280;15682;56.742;38.866;2023-05-02T00:50:31;99980.0;;;2.9;94.8
28456;BME280;15682;56.742;38.866;2023-05-02T00:52:32;99980.0;;;2.8;95.4
28456;BME280;15682;56.742;38.866;2023-05-02T00:54:32;99980.0;;;2.8;95.4
28456;BME280;15682;56.742;38.866;2023-05-02T00:56:32;99980.0;;;2.8;96.0
28456;BME280;15682;56.742;38.866;2023-05-02T00:58:32;99980.0;;;2.8;96.0
28456;BME280;15682;56.742;38.866;2023-05-02T01:00:53;99980.0;;;2.8;95.3
28456;BME280;15682;56.742;38.866;2023-05-02T01:02:37;99980.0;;;2.8;95.3
28456;BME280;15682;56.742;38.866;2023-05-02T01:04:40;99990.0;;;2.8;95.3
28456;BME280;15682;56.742;38.866;2023-05-02T01:06:52;99990.0;;;2.7;95.2
28456;BME280;15682;56.742;38.866;2023-05-02T01:08:35;99990.0;;;2.7;95.2
28456;BME280;15682;56.742;38.866;2023-05-02T01:10:44;99990.0;;;2.7;95.2
28456;BME280;15682;56.742;38.866;2023-05-02T01:12:38;99990.0;;;2.7;95.2
28456;BME280;15682;56.742;38.866;2023-05-02T01:14:34;100010.0;;;2.7;94.7
28456;BME280;15682;56.742;38.866;2023-05-02T01:16:33;100010.0;;;2.7;95.1
28456;BME280;15682;56.742;38.866;2023-05-02T01:18:35;100010.0;;;2.7;95.1
28456;BME280;15682;56.742;38.866;2023-05-02T01:20:36;100010.0;;;2.7;95.1
28456;BME280;15682;56.742;38.866;2023-05-02T01:22:32;100010.0;;;2.7;95.1
28456;BME280;15682;56.742;38.866;2023-05-02T01:24:36;100020.0;;;2.7;95.1
28456;BME280;15682;56.742;38.866;2023-05-02T01:26:39;100020.0;;;2.6;95.3
28456;BME280;15682;56.742;38.866;2023-05-02T01:28:42;100020.0;;;2.6;95.3
28456;BME280;15682;56.742;38.866;2023-05-02T01:30:33;100020.0;;;2.6;95.3
28456;BME280;15682;56.742;38.866;2023-05-02T01:32:32;100020.0;;;2.6;95.3
28456;BME280;15682;56.742;38.866;2023-05-02T01:34:32;100030.0;;;2.5;95.3
28456;BME280;15682;56.742;38.866;2023-05-02T01:36:33;100040.0;;;2.5;95.5
28456;BME280;15682;56.742;38.866;2023-05-02T01:38:33;100040.0;;;2.7;95.5
28456;BME280;15682;56.742;38.866;2023-05-02T01:40:32;100040.0;;;2.7;96.0
28456;BME280;15682;56.742;38.866;2023-05-02T01:42:33;100050.0;;;2.7;95.3
28456;BME280;15682;56.742;38.866;2023-05-02T01:44:33;100050.0;;;2.7;96.1
28456;BME280;15682;56.742;38.866;2023-05-02T01:46:34;100050.0;;;2.7;94.3
28456;BME280;15682;56.742;38.866;2023-05-02T01:48:32;100060.0;;;2.7;94.3
28456;BME280;15682;56.742;38.866;2023-05-02T01:50:33;100060.0;;;2.7;94.3
28456;BME280;15682;56.742;38.866;2023-05-02T01:52:32;100070.0;;;2.7;94.3
28456;BME280;15682;56.742;38.866;2023-05-02T01:54:34;100070.0;;;2.8;94.3
28456;BME280;15682;56.742;38.866;2023-05-02T01:56:34;100070.0;;;2.8;93.7
28456;BME280;15682;56.742;38.866;2023-05-02T01:58:32;100070.0;;;2.8;93.7
28456;BME280;15682;56.742;38.866;2023-05-02T02:00:33;100070.0;;;2.8;93.7
28456;BME280;15682;56.742;38.866;2023-05-02T02:02:34;100070.0;;;2.8;93.7
28456;BME280;15682;56.742;38.866;2023-05-02T02:04:34;100070.0;;;2.8;93.7
28456;BME280;15682;56.742;38.866;2023-05-02T02:06:32;100080.0;;;2.8;94.0
28456;BME280;15682;56.742;38.866;2023-05-02T02:08:32;100080.0;;;2.8;94.0
28456;BME280;15682;56.742;38.866;2023-05-02T02:10:40;100090.0;;;2.8;93.2
28456;BME280;15682;56.742;38.866;2023-05-02T02:12:37;100090.0;;;2.9;92.5
28456;BME280;15682;56.742;38.866;2023-05-02T02:14:34;100090.0;;;2.9;92.5
28456;BME280;15682;56.742;38.866;2023-05-02T02:16:34;100090.0;;;3.1;92.3
28456;BME280;15682;56.742;38.866;2023-05-02T02:18:35;100090.0;;;3.1;92.3
28456;BME280;15682;56.742;38.866;2023-05-02T02:20:32;100090.0;;;3.3;92.9
28456;BME280;15682;56.742;38.866;2023-05-02T02:22:36;100090.0;;;3.3;92.9
28456;BME280;15682;56.742;38.866;2023-05-02T02:24:34;100090.0;;;3.3;92.9
28456;BME280;15682;56.742;38.866;2023-05-02T02:26:32;100100.0;;;3.3;92.6
28456;BME280;15682;56.742;38.866;2023-05-02T02:28:33;100120.0;;;3.3;92.0
28456;BME280;15682;56.742;38.866;2023-05-02T02:30:32;100120.0;;;3.4;92.7
28456;BME280;15682;56.742;38.866;2023-05-02T02:32:32;100120.0;;;3.4;92.7
28456;BME280;15682;56.742;38.866;2023-05-02T02:34:32;100120.0;;;3.5;93.7
28456;BME280;15682;56.742;38.866;2023-05-02T02:36:39;100120.0;;;3.5;92.2
28456;BME280;15682;56.742;38.866;2023-05-02T02:38:37;100120.0;;;3.5;93.8
28456;BME280;15682;56.742;38.866;2023-05-02T02:40:39;100130.0;;;3.5;92.1
28456;BME280;15682;56.742;38.866;2023-05-02T02:42:36;100130.0;;;3.7;93.9
28456;BME280;15682;56.742;38.866;2023-05-02T02:44:42;100140.0;;;3.7;93.9
28456;BME280;15682;56.742;38.866;2023-05-02T02:46:41;100140.0;;;3.5;91.5
28456;BME280;15682;56.742;38.866;2023-05-02T02:48:36;100140.0;;;3.5;91.9
28456;BME280;15682;56.742;38.866;2023-05-02T02:50:37;100140.0;;;3.5;91.8
28456;BME280;15682;56.742;38.866;2023-05-02T02:52:39;100140.0;;;3.8;92.7
28456;BME280;15682;56.742;38.866;2023-05-02T02:54:42;100140.0;;;3.9;93.2
28456;BME280;15682;56.742;38.866;2023-05-02T02:56:36;100140.0;;;3.9;90.0
28456;BME280;15682;56.742;38.866;2023-05-02T02:58:41;100140.0;;;4.0;88.8
28456;BME280;15682;56.742;38.866;2023-05-02T03:00:34;100150.0;;;3.9;88.8
28456;BME280;15682;56.742;38.866;2023-05-02T03:02:34;100150.0;;;3.9;88.6
28456;BME280;15682;56.742;38.866;2023-05-02T03:04:35;100150.0;;;3.9;87.4
28456;BME280;15682;56.742;38.866;2023-05-02T03:06:33;100160.0;;;3.9;85.4
28456;BME280;15682;56.742;38.866;2023-05-02T03:08:38;100160.0;;;4.0;86.2
28456;BME280;15682;56.742;38.866;2023-05-02T03:10:33;100160.0;;;4.2;83.6
28456;BME280;15682;56.742;38.866;2023-05-02T03:12:33;100170.0;;;4.2;82.3
28456;BME280;15682;56.742;38.866;2023-05-02T03:14:33;100170.0;;;4.2;80.9
28456;BME280;15682;56.742;38.866;2023-05-02T03:16:35;100170.0;;;4.2;81.5
28456;BME280;15682;56.742;38.866;2023-05-02T03:18:33;100170.0;;;4.1;82.1
28456;BME280;15682;56.742;38.866;2023-05-02T03:20:34;100170.0;;;4.1;80.6
28456;BME280;15682;56.742;38.866;2023-05-02T03:22:34;100170.0;;;4.1;80.6
28456;BME280;15682;56.742;38.866;2023-05-02T03:24:34;100180.0;;;4.1;80.9
28456;BME280;15682;56.742;38.866;2023-05-02T03:26:34;100180.0;;;4.1;80.9
28456;BME280;15682;56.742;38.866;2023-05-02T03:28:34;100180.0;;;4.3;80.9
28456;BME280;15682;56.742;38.866;2023-05-02T03:30:34;100180.0;;;4.3;80.5
28456;BME280;15682;56.742;38.866;2023-05-02T03:32:34;100180.0;;;4.3;80.5
28456;BME280;15682;56.742;38.866;2023-05-02T03:34:35;100190.0;;;4.3;79.1
28456;BME280;15682;56.742;38.866;2023-05-02T03:36:35;100200.0;;;4.4;79.1
28456;BME280;15682;56.742;38.866;2023-05-02T03:38:35;100200.0;;;4.6;79.1
28456;BME280;15682;56.742;38.866;2023-05-02T03:40:35;100200.0;;;4.6;79.1
28456;BME280;15682;56.742;38.866;2023-05-02T03:42:36;100200.0;;;4.6;79.1
28456;BME280;15682;56.742;38.866;2023-05-02T03:44:36;100200.0;;;4.6;79.5
28456;BME280;15682;56.742;38.866;2023-05-02T03:46:36;100200.0;;;4.6;79.5
28456;BME280;15682;56.742;38.866;2023-05-02T03:48:37;100200.0;;;4.7;79.5
28456;BME280;15682;56.742;38.866;2023-05-02T03:50:36;100210.0;;;4.8;78.1
28456;BME280;15682;56.742;38.866;2023-05-02T03:52:37;100210.0;;;4.8;78.1
28456;BME280;15682;56.742;38.866;2023-05-02T03:54:37;100220.0;;;4.8;77.9
28456;BME280;15682;56.742;38.866;2023-05-02T03:56:37;100220.0;;;4.8;77.9
28456;BME280;15682;56.742;38.866;2023-05-02T03:58:38;100230.0;;;4.9;77.9
28456;BME280;15682;56.742;38.866;2023-05-02T04:00:38;100230.0;;;4.9;77.9
28456;BME280;15682;56.742;38.866;2023-05-02T04:02:38;100230.0;;;4.9;79.0
28456;BME280;15682;56.742;38.866;2023-05-02T04:04:40;100230.0;;;5.1;78.3
28456;BME280;15682;56.742;38.866;2023-05-02T04:06:39;100230.0;;;5.1;78.3
28456;BME280;15682;56.742;38.866;2023-05-02T04:08:39;100240.0;;;5.0;77.7
28456;BME280;15682;56.742;38.866;2023-05-02T04:10:40;100240.0;;;5.0;77.7
28456;BME280;15682;56.742;38.866;2023-05-02T04:12:40;100240.0;;;5.2;77.1
28456;BME280;15682;56.742;38.866;2023-05-02T04:14:40;100240.0;;;5.2;76.6
28456;BME280;15682;56.742;38.866;2023-05-02T04:16:41;100240.0;;;5.2;76.2
28456;BME280;15682;56.742;38.866;2023-05-02T04:18:42;100240.0;;;5.2;77.3
28456;BME280;15682;56.742;38.866;2023-05-02T04:20:42;100240.0;;;5.2;76.5
28456;BME280;15682;56.742;38.866;2023-05-02T04:22:42;100240.0;;;5.3;75.8
28456;BME280;15682;56.742;38.866;2023-05-02T04:24:43;100240.0;;;5.3;75.7
28456;BME280;15682;56.742;38.866;2023-05-02T04:26:43;100240.0;;;5.3;75.7
28456;BME280;15682;56.742;38.866;2023-05-02T04:28:44;100240.0;;;5.3;76.3
28456;BME280;15682;56.742;38.866;2023-05-02T04:30:44;100240.0;;;5.3;76.3
28456;BME280;15682;56.742;38.866;2023-05-02T04:32:45;100240.0;;;5.5;75.2
28456;BME280;15682;56.742;38.866;2023-05-02T04:34:45;100250.0;;;5.6;75.6
28456;BME280;15682;56.742;38.866;2023-05-02T04:36:45;100250.0;;;5.6;74.9
28456;BME280;15682;56.742;38.866;2023-05-02T04:38:46;100260.0;;;5.7;74.9
28456;BME280;15682;56.742;38.866;2023-05-02T04:40:48;100260.0;;;5.7;74.9
28456;BME280;15682;56.742;38.866;2023-05-02T04:42:47;100260.0;;;5.8;74.4
28456;BME280;15682;56.742;38.866;2023-05-02T04:44:48;100270.0;;;5.8;75.3
28456;BME280;15682;56.742;38.866;2023-05-02T04:46:48;100270.0;;;5.8;76.1
28456;BME280;15682;56.742;38.866;2023-05-02T04:48:49;100270.0;;;5.9;75.2
28456;BME280;15682;56.742;38.866;2023-05-02T04:50:49;100270.0;;;6.0;72.8
28456;BME280;15682;56.742;38.866;2023-05-02T04:52:49;100270.0;;;6.0;73.7
28456;BME280;15682;56.742;38.866;2023-05-02T04:54:50;100280.0;;;6.0;73.9
28456;BME280;15682;56.742;38.866;2023-05-02T04:56:51;100280.0;;;6.0;72.9
28456;BME280;15682;56.742;38.866;2023-05-02T04:58:51;100280.0;;;6.2;72.9
28456;BME280;15682;56.742;38.866;2023-05-02T05:00:52;100280.0;;;6.2;72.3
28456;BME280;15682;56.742;38.866;2023-05-02T05:02:52;100280.0;;;6.3;71.6
28456;BME280;15682;56.742;38.866;2023-05-02T05:04:53;100280.0;;;6.3;72.1
28456;BME280;15682;56.742;38.866;2023-05-02T05:06:53;100280.0;;;6.5;71.8
28456;BME280;15682;56.742;38.866;2023-05-02T05:08:54;100280.0;;;6.7;71.8
28456;BME280;15682;56.742;38.866;2023-05-02T05:10:55;100280.0;;;6.9;70.8
28456;BME280;15682;56.742;38.866;2023-05-02T05:12:55;100280.0;;;6.9;70.8
28456;BME280;15682;56.742;38.866;2023-05-02T05:14:56;100280.0;;;6.9;70.0
28456;BME280;15682;56.742;38.866;2023-05-02T05:16:56;100280.0;;;6.9;69.7
28456;BME280;15682;56.742;38.866;2023-05-02T05:18:57;100280.0;;;6.9;69.7
28456;BME280;15682;56.742;38.866;2023-05-02T05:20:57;100280.0;;;6.9;68.8
28456;BME280;15682;56.742;38.866;2023-05-02T05:22:58;100280.0;;;7.0;68.1
28456;BME280;15682;56.742;38.866;2023-05-02T05:24:59;100280.0;;;7.1;67.7
28456;BME280;15682;56.742;38.866;2023-05-02T05:26:59;100280.0;;;7.3;67.5
28456;BME280;15682;56.742;38.866;2023-05-02T05:29:00;100280.0;;;7.2;67.5
28456;BME280;15682;56.742;38.866;2023-05-02T05:31:04;100280.0;;;7.2;67.4
28456;BME280;15682;56.742;38.866;2023-05-02T05:33:01;100280.0;;;7.4;67.4
28456;BME280;15682;56.742;38.866;2023-05-02T05:35:02;100280.0;;;7.6;67.4
28456;BME280;15682;56.742;38.866;2023-05-02T05:37:02;100280.0;;;7.6;67.4
28456;BME280;15682;56.742;38.866;2023-05-02T05:39:03;100280.0;;;7.8;67.4
28456;BME280;15682;56.742;38.866;2023-05-02T05:41:04;100280.0;;;7.8;67.4
28456;BME280;15682;56.742;38.866;2023-05-02T05:43:04;100280.0;;;7.9;67.4
28456;BME280;15682;56.742;38.866;2023-05-02T05:45:06;100280.0;;;7.9;67.7
28456;BME280;15682;56.742;38.866;2023-05-02T05:47:05;100280.0;;;7.9;67.7
28456;BME280;15682;56.742;38.866;2023-05-02T05:49:06;100280.0;;;7.9;66.6
28456;BME280;15682;56.742;38.866;2023-05-02T05:51:06;100280.0;;;7.9;67.1
28456;BME280;15682;56.742;38.866;2023-05-02T05:53:07;100280.0;;;8.0;67.1
28456;BME280;15682;56.742;38.866;2023-05-02T05:55:08;100280.0;;;8.1;66.3
28456;BME280;15682;56.742;38.866;2023-05-02T05:57:08;100280.0;;;8.2;66.3
28456;BME280;15682;56.742;38.866;2023-05-02T05:59:09;100280.0;;;8.2;65.5
28456;BME280;15682;56.742;38.866;2023-05-02T06:01:09;100280.0;;;8.4;63.3
28456;BME280;15682;56.742;38.866;2023-05-02T06:03:10;100280.0;;;8.4;65.6
28456;BME280;15682;56.742;38.866;2023-05-02T06:05:11;100280.0;;;8.4;65.7
28456;BME280;15682;56.742;38.866;2023-05-02T06:07:11;100280.0;;;8.6;64.5
28456;BME280;15682;56.742;38.866;2023-05-02T06:09:12;100290.0;;;8.5;65.1
28456;BME280;15682;56.742;38.866;2023-05-02T06:11:13;100290.0;;;8.7;64.2
28456;BME280;15682;56.742;38.866;2023-05-02T06:13:13;100290.0;;;8.8;65.9
28456;BME280;15682;56.742;38.866;2023-05-02T06:15:14;100290.0;;;8.8;62.9
28456;BME280;15682;56.742;38.866;2023-05-02T06:17:14;100290.0;;;8.8;64.1
28456;BME280;15682;56.742;38.866;2023-05-02T06:19:15;100290.0;;;8.8;62.9
28456;BME280;15682;56.742;38.866;2023-05-02T06:21:16;100290.0;;;8.8;64.2
28456;BME280;15682;56.742;38.866;2023-05-02T06:23:16;100290.0;;;8.8;64.0
28456;BME280;15682;56.742;38.866;2023-05-02T06:25:17;100290.0;;;8.8;61.9
28456;BME280;15682;56.742;38.866;2023-05-02T06:27:17;100290.0;;;9.0;61.1
28456;BME280;15682;56.742;38.866;2023-05-02T06:29:18;100290.0;;;9.1;62.5
28456;BME280;15682;56.742;38.866;2023-05-02T06:31:19;100290.0;;;9.2;61.2
28456;BME280;15682;56.742;38.866;2023-05-02T06:33:19;100290.0;;;9.2;60.1
28456;BME280;15682;56.742;38.866;2023-05-02T06:35:20;100290.0;;;9.2;62.6
28456;BME280;15682;56.742;38.866;2023-05-02T06:37:21;100290.0;;;9.2;61.7
28456;BME280;15682;56.742;38.866;2023-05-02T06:39:21;100290.0;;;9.4;57.8
28456;BME280;15682;56.742;38.866;2023-05-02T06:41:22;100290.0;;;9.4;59.8
28456;BME280;15682;56.742;38.866;2023-05-02T06:43:23;100290.0;;;9.4;59.3
28456;BME280;15682;56.742;38.866;2023-05-02T06:45:23;100290.0;;;9.6;57.0
28456;BME280;15682;56.742;38.866;2023-05-02T06:47:24;100290.0;;;9.6;55.5
28456;BME280;15682;56.742;38.866;2023-05-02T06:49:25;100300.0;;;9.6;55.4
28456;BME280;15682;56.742;38.866;2023-05-02T06:51:25;100300.0;;;9.7;54.0
28456;BME280;15682;56.742;38.866;2023-05-02T06:53:26;100300.0;;;9.9;54.6
28456;BME280;15682;56.742;38.866;2023-05-02T06:55:26;100300.0;;;9.9;56.2
28456;BME280;15682;56.742;38.866;2023-05-02T06:57:27;100300.0;;;10.0;54.0
28456;BME280;15682;56.742;38.866;2023-05-02T06:59:27;100300.0;;;10.1;53.7
28456;BME280;15682;56.742;38.866;2023-05-02T07:01:28;100300.0;;;10.1;54.9
28456;BME280;15682;56.742;38.866;2023-05-02T07:03:29;100300.0;;;10.1;55.8
28456;BME280;15682;56.742;38.866;2023-05-02T07:05:29;100300.0;;;10.1;54.6
28456;BME280;15682;56.742;38.866;2023-05-02T07:07:30;100300.0;;;10.2;58.4
28456;BME280;15682;56.742;38.866;2023-05-02T07:09:30;100300.0;;;10.3;50.6
28456;BME280;15682;56.742;38.866;2023-05-02T07:11:31;100300.0;;;10.3;49.6
28456;BME280;15682;56.742;38.866;2023-05-02T07:13:31;100300.0;;;10.2;49.2
28456;BME280;15682;56.742;38.866;2023-05-02T07:15:32;100300.0;;;10.2;50.8
28456;BME280;15682;56.742;38.866;2023-05-02T07:17:33;100300.0;;;10.4;51.4
28456;BME280;15682;56.742;38.866;2023-05-02T07:19:33;100300.0;;;10.4;49.7
28456;BME280;15682;56.742;38.866;2023-05-02T07:21:34;100300.0;;;10.4;50.4
28456;BME280;15682;56.742;38.866;2023-05-02T07:23:34;100300.0;;;10.6;48.2
28456;BME280;15682;56.742;38.866;2023-05-02T07:25:35;100300.0;;;10.6;47.4
28456;BME280;15682;56.742;38.866;2023-05-02T07:27:35;100300.0;;;10.6;48.8
28456;BME280;15682;56.742;38.866;2023-05-02T07:29:36;100300.0;;;10.5;47.8
28456;BME280;15682;56.742;38.866;2023-05-02T07:31:36;100300.0;;;10.5;47.3
28456;BME280;15682;56.742;38.866;2023-05-02T07:33:36;100300.0;;;10.6;47.6
28456;BME280;15682;56.742;38.866;2023-05-02T07:35:37;100300.0;;;10.7;46.4
28456;BME280;15682;56.742;38.866;2023-05-02T07:37:37;100300.0;;;10.8;48.1
28456;BME280;15682;56.742;38.866;2023-05-02T07:39:37;100300.0;;;11.0;49.3
28456;BME280;15682;56.742;38.866;2023-05-02T07:41:38;100310.0;;;11.0;49.9
28456;BME280;15682;56.742;38.866;2023-05-02T07:43:38;100310.0;;;11.0;47.8
28456;BME280;15682;56.742;38.866;2023-05-02T07:45:38;100310.0;;;11.1;47.0
28456;BME280;15682;56.742;38.866;2023-05-02T07:47:39;100310.0;;;11.1;47.4
28456;BME280;15682;56.742;38.866;2023-05-02T07:49:39;100310.0;;;11.1;46.4
28456;BME280;15682;56.742;38.866;2023-05-02T07:51:39;100310.0;;;11.1;46.2
28456;BME280;15682;56.742;38.866;2023-05-02T07:53:40;100310.0;;;11.1;47.1
28456;BME280;15682;56.742;38.866;2023-05-02T07:55:40;100310.0;;;11.3;46.5
28456;BME280;15682;56.742;38.866;2023-05-02T07:57:40;100310.0;;;11.3;48.2
28456;BME280;15682;56.742;38.866;2023-05-02T07:59:40;100310.0;;;11.4;46.7
28456;BME280;15682;56.742;38.866;2023-05-02T08:01:41;100310.0;;;11.3;48.5
28456;BME280;15682;56.742;38.866;2023-05-02T08:03:41;100310.0;;;11.4;46.6
28456;BME280;15682;56.742;38.866;2023-05-02T08:05:41;100310.0;;;11.3;47.4
28456;BME280;15682;56.742;38.866;2023-05-02T08:07:42;100310.0;;;11.6;49.7
28456;BME280;15682;56.742;38.866;2023-05-02T08:09:42;100310.0;;;11.6;49.7
28456;BME280;15682;56.742;38.866;2023-05-02T08:11:42;100310.0;;;11.6;46.9
28456;BME280;15682;56.742;38.866;2023-05-02T08:13:42;100310.0;;;11.4;49.5
28456;BME280;15682;56.742;38.866;2023-05-02T08:15:43;100310.0;;;11.6;45.8
28456;BME280;15682;56.742;38.866;2023-05-02T08:17:43;100310.0;;;11.7;49.4
28456;BME280;15682;56.742;38.866;2023-05-02T08:19:43;100310.0;;;11.9;48.3
28456;BME280;15682;56.742;38.866;2023-05-02T08:21:43;100300.0;;;12.0;45.9
28456;BME280;15682;56.742;38.866;2023-05-02T08:23:44;100300.0;;;12.1;47.2
28456;BME280;15682;56.742;38.866;2023-05-02T08:25:44;100300.0;;;12.1;47.2
28456;BME280;15682;56.742;38.866;2023-05-02T08:27:44;100300.0;;;12.1;46.5
28456;BME280;15682;56.742;38.866;2023-05-02T08:29:45;100300.0;;;12.3;46.8
28456;BME280;15682;56.742;38.866;2023-05-02T08:31:45;100300.0;;;12.4;46.8
28456;BME280;15682;56.742;38.866;2023-05-02T08:33:45;100300.0;;;12.6;45.5
28456;BME280;15682;56.742;38.866;2023-05-02T08:35:45;100300.0;;;12.6;43.5
28456;BME280;15682;56.742;38.866;2023-05-02T08:37:46;100300.0;;;12.6;44.7
28456;BME280;15682;56.742;38.866;2023-05-02T08:39:46;100300.0;;;12.6;45.3
28456;BME280;15682;56.742;38.866;2023-05-02T08:41:46;100300.0;;;12.6;45.3
28456;BME280;15682;56.742;38.866;2023-05-02T08:43:47;100300.0;;;12.7;44.7
28456;BME280;15682;56.742;38.866;2023-05-02T08:45:49;100300.0;;;12.8;47.1
28456;BME280;15682;56.742;38.866;2023-05-02T08:47:48;100300.0;;;12.9;47.1
28456;BME280;15682;56.742;38.866;2023-05-02T08:49:47;100300.0;;;12.8;45.2
28456;BME280;15682;56.742;38.866;2023-05-02T08:51:48;100300.0;;;13.1;45.2
28456;BME280;15682;56.742;38.866;2023-05-02T08:53:48;100300.0;;;13.1;45.2
28456;BME280;15682;56.742;38.866;2023-05-02T08:55:48;100300.0;;;13.1;45.2
28456;BME280;15682;56.742;38.866;2023-05-02T08:57:48;100300.0;;;13.1;45.1
28456;BME280;15682;56.742;38.866;2023-05-02T08:59:48;100300.0;;;13.2;45.1
28456;BME280;15682;56.742;38.866;2023-05-02T09:01:51;100300.0;;;13.1;44.0
28456;BME280;15682;56.742;38.866;2023-05-02T09:03:49;100300.0;;;13.3;45.5
28456;BME280;15682;56.742;38.866;2023-05-02T09:05:52;100290.0;;;13.3;44.0
28456;BME280;15682;56.742;38.866;2023-05-02T09:07:50;100290.0;;;13.3;45.4
28456;BME280;15682;56.742;38.866;2023-05-02T09:09:50;100290.0;;;13.7;46.0
28456;BME280;15682;56.742;38.866;2023-05-02T09:11:51;100290.0;;;13.9;44.6
28456;BME280;15682;56.742;38.866;2023-05-02T09:13:51;100290.0;;;13.5;46.6
28456;BME280;15682;56.742;38.866;2023-05-02T09:15:56;100290.0;;;13.9;44.5
28456;BME280;15682;56.742;38.866;2023-05-02T09:17:51;100290.0;;;14.0;45.4
28456;BME280;15682;56.742;38.866;2023-05-02T09:19:59;100290.0;;;13.6;45.4
28456;BME280;15682;56.742;38.866;2023-05-02T09:21:52;100290.0;;;13.6;44.4
28456;BME280;15682;56.742;38.866;2023-05-02T09:23:53;100280.0;;;13.8;46.0
28456;BME280;15682;56.742;38.866;2023-05-02T09:25:52;100280.0;;;13.9;46.7
28456;BME280;15682;56.742;38.866;2023-05-02T09:27:54;100270.0;;;13.9;45.9
28456;BME280;15682;56.742;38.866;2023-05-02T09:31:53;100280.0;;;13.8;45.6
28456;BME280;15682;56.742;38.866;2023-05-02T09:33:54;100280.0;;;14.1;45.0
28456;BME280;15682;56.742;38.866;2023-05-02T09:35:54;100280.0;;;13.8;44.9
28456;BME280;15682;56.742;38.866;2023-05-02T09:37:55;100270.0;;;13.8;46.6
28456;BME280;15682;56.742;38.866;2023-05-02T09:40:05;100270.0;;;13.7;47.1
28456;BME280;15682;56.742;38.866;2023-05-02T09:41:55;100270.0;;;13.9;45.2
28456;BME280;15682;56.742;38.866;2023-05-02T09:43:55;100270.0;;;14.1;45.8
28456;BME280;15682;56.742;38.866;2023-05-02T09:45:57;100270.0;;;13.7;45.8
28456;BME280;15682;56.742;38.866;2023-05-02T09:48:00;100270.0;;;13.7;44.7
28456;BME280;15682;56.742;38.866;2023-05-02T09:49:55;100270.0;;;13.4;45.2
28456;BME280;15682;56.742;38.866;2023-05-02T09:52:09;100270.0;;;13.4;45.9
28456;BME280;15682;56.742;38.866;2023-05-02T09:53:56;100270.0;;;13.4;45.0
28456;BME280;15682;56.742;38.866;2023-05-02T09:56:00;100270.0;;;13.5;47.5
28456;BME280;15682;56.742;38.866;2023-05-02T09:57:57;100260.0;;;13.6;44.5
28456;BME280;15682;56.742;38.866;2023-05-02T09:59:58;100260.0;;;13.6;44.8
28456;BME280;15682;56.742;38.866;2023-05-02T10:01:58;100260.0;;;13.4;46.6
28456;BME280;15682;56.742;38.866;2023-05-02T10:03:57;100250.0;;;13.6;45.2
28456;BME280;15682;56.742;38.866;2023-05-02T10:05:58;100250.0;;;13.5;44.5
28456;BME280;15682;56.742;38.866;2023-05-02T10:07:58;100240.0;;;13.3;45.4
28456;BME280;15682;56.742;38.866;2023-05-02T10:10:00;100240.0;;;13.4;43.8
28456;BME280;15682;56.742;38.866;2023-05-02T10:12:01;100240.0;;;13.5;45.5
28456;BME280;15682;56.742;38.866;2023-05-02T10:13:59;100240.0;;;13.5;45.5
28456;BME280;15682;56.742;38.866;2023-05-02T10:16:01;100240.0;;;13.3;42.6
28456;BME280;15682;56.742;38.866;2023-05-02T10:18:02;100240.0;;;13.0;44.8
28456;BME280;15682;56.742;38.866;2023-05-02T10:20:03;100240.0;;;13.3;44.8
28456;BME280;15682;56.742;38.866;2023-05-02T10:22:00;100240.0;;;13.4;43.3
28456;BME280;15682;56.742;38.866;2023-05-02T10:24:00;100240.0;;;13.3;46.1
28456;BME280;15682;56.742;38.866;2023-05-02T10:26:00;100240.0;;;13.4;44.5
28456;BME280;15682;56.742;38.866;2023-05-02T10:28:01;100240.0;;;13.6;43.8
28456;BME280;15682;56.742;38.866;2023-05-02T10:30:01;100240.0;;;13.6;44.5
28456;BME280;15682;56.742;38.866;2023-05-02T10:32:02;100240.0;;;13.6;45.0
28456;BME280;15682;56.742;38.866;2023-05-02T10:34:02;100240.0;;;13.5;43.6
28456;BME280;15682;56.742;38.866;2023-05-02T10:36:02;100240.0;;;13.6;43.4
28456;BME280;15682;56.742;38.866;2023-05-02T10:38:02;100240.0;;;13.6;44.3
28456;BME280;15682;56.742;38.866;2023-05-02T10:40:03;100240.0;;;13.5;44.6
28456;BME280;15682;56.742;38.866;2023-05-02T10:42:03;100240.0;;;13.5;42.6
28456;BME280;15682;56.742;38.866;2023-05-02T10:44:03;100240.0;;;13.7;43.9
28456;BME280;15682;56.742;38.866;2023-05-02T10:48:18;100230.0;;;13.9;45.0
28456;BME280;15682;56.742;38.866;2023-05-02T10:50:04;100230.0;;;13.9;43.3
28456;BME280;15682;56.742;38.866;2023-05-02T10:52:24;100230.0;;;13.7;44.6
28456;BME280;15682;56.742;38.866;2023-05-02T10:54:21;100230.0;;;13.8;43.5
28456;BME280;15682;56.742;38.866;2023-05-02T10:56:10;100230.0;;;13.6;40.8